sensor_id;sensor_type;location;lat;lon;timestamp;P1;durP1;ratioP1;P2;durP2;ratioP2
17826;SDS011;9038;48.208;16.308;2023-02-03T00:00:49;59.83;;;27.60;;
17826;SDS011;9038;48.208;16.308;2023-02-03T00:02:51;55.93;;;27.07;;
17826;SDS011;9038;48.208;16.308;2023-02-03T00:04:53;56.40;;;27.03;;
17826;SDS011;9038;48.208;16.308;2023-02-03T00:06:55;59.77;;;27.40;;
17826;SDS011;9038;48.208;16.308;2023-02-03T00:08:57;60.20;;;27.67;;
17826;SDS011;9038;48.208;16.308;2023-02-03T00:11:00;57.67;;;27.20;;
17826;SDS011;9038;48.208;16.308;2023-02-03T00:13:02;56.97;;;27.10;;
17826;SDS011;9038;48.208;16.308;2023-02-03T00:15:05;57.73;;;27.20;;
17826;SDS011;9038;48.208;16.308;2023-02-03T00:17:09;56.50;;;27.10;;
17826;SDS011;9038;48.208;16.308;2023-02-03T00:19:11;53.30;;;26.43;;
17826;SDS011;9038;48.208;16.308;2023-02-03T00:21:13;46.90;;;25.30;;
17826;SDS011;9038;48.208;16.308;2023-02-03T00:23:15;45.33;;;24.63;;
17826;SDS011;9038;48.208;16.308;2023-02-03T00:25:17;43.40;;;24.00;;
17826;SDS011;9038;48.208;16.308;2023-02-03T00:27:20;40.50;;;23.23;;
17826;SDS011;9038;48.208;16.308;2023-02-03T00:29:22;44.10;;;24.17;;
17826;SDS011;9038;48.208;16.308;2023-02-03T00:31:25;54.87;;;26.40;;
17826;SDS011;9038;48.208;16.308;2023-02-03T00:33:28;55.30;;;26.60;;
17826;SDS011;9038;48.208;16.308;2023-02-03T00:35:30;54.70;;;26.47;;
17826;SDS011;9038;48.208;16.308;2023-02-03T00:37:32;53.40;;;26.17;;
17826;SDS011;9038;48.208;16.308;2023-02-03T00:39:34;53.37;;;26.20;;
17826;SDS011;9038;48.208;16.308;2023-02-03T00:41:37;53.80;;;26.30;;
17826;SDS011;9038;48.208;16.308;2023-02-03T00:43:39;51.97;;;25.97;;
17826;SDS011;9038;48.208;16.308;2023-02-03T00:45:44;52.80;;;26.00;;
17826;SDS011;9038;48.208;16.308;2023-02-03T00:47:46;52.60;;;26.23;;
17826;SDS011;9038;48.208;16.308;2023-02-03T00:49:50;53.13;;;26.23;;
17826;SDS011;9038;48.208;16.308;2023-02-03T00:51:52;52.73;;;26.10;;
17826;SDS011;9038;48.208;16.308;2023-02-03T00:53:55;53.00;;;26.13;;
17826;SDS011;9038;48.208;16.308;2023-02-03T00:55:57;52.17;;;26.10;;
17826;SDS011;9038;48.208;16.308;2023-02-03T00:57:59;52.13;;;25.97;;
17826;SDS011;9038;48.208;16.308;2023-02-03T01:00:01;52.23;;;25.97;;
17826;SDS011;9038;48.208;16.308;2023-02-03T01:02:03;51.67;;;25.93;;
17826;SDS011;9038;48.208;16.308;2023-02-03T01:04:06;52.10;;;26.00;;
17826;SDS011;9038;48.208;16.308;2023-02-03T01:06:14;52.43;;;26.07;;
17826;SDS011;9038;48.208;16.308;2023-02-03T01:08:20;50.77;;;25.53;;
17826;SDS011;9038;48.208;16.308;2023-02-03T01:10:23;50.17;;;25.50;;
17826;SDS011;9038;48.208;16.308;2023-02-03T01:12:27;50.00;;;25.80;;
17826;SDS011;9038;48.208;16.308;2023-02-03T01:14:30;49.00;;;25.50;;
17826;SDS011;9038;48.208;16.308;2023-02-03T01:16:32;48.47;;;25.33;;
17826;SDS011;9038;48.208;16.308;2023-02-03T01:18:37;46.80;;;24.97;;
17826;SDS011;9038;48.208;16.308;2023-02-03T01:20:47;45.70;;;24.77;;
17826;SDS011;9038;48.208;16.308;2023-02-03T01:22:53;45.13;;;24.80;;
17826;SDS011;9038;48.208;16.308;2023-02-03T01:24:55;41.90;;;23.90;;
17826;SDS011;9038;48.208;16.308;2023-02-03T01:26:57;41.50;;;23.83;;
17826;SDS011;9038;48.208;16.308;2023-02-03T01:28:59;42.80;;;24.07;;
17826;SDS011;9038;48.208;16.308;2023-02-03T01:31:08;42.07;;;23.93;;
17826;SDS011;9038;48.208;16.308;2023-02-03T01:33:11;41.47;;;23.83;;
17826;SDS011;9038;48.208;16.308;2023-02-03T01:35:13;41.07;;;23.73;;
17826;SDS011;9038;48.208;16.308;2023-02-03T01:37:15;40.03;;;23.47;;
17826;SDS011;9038;48.208;16.308;2023-02-03T01:39:19;41.30;;;23.87;;
17826;SDS011;9038;48.208;16.308;2023-02-03T01:41:23;39.20;;;23.30;;
17826;SDS011;9038;48.208;16.308;2023-02-03T01:43:27;40.77;;;23.63;;
17826;SDS011;9038;48.208;16.308;2023-02-03T01:45:30;40.33;;;23.53;;
17826;SDS011;9038;48.208;16.308;2023-02-03T01:47:32;39.13;;;23.33;;
17826;SDS011;9038;48.208;16.308;2023-02-03T01:49:38;39.20;;;23.23;;
17826;SDS011;9038;48.208;16.308;2023-02-03T01:51:45;38.77;;;23.10;;
17826;SDS011;9038;48.208;16.308;2023-02-03T01:53:47;38.73;;;23.03;;
17826;SDS011;9038;48.208;16.308;2023-02-03T01:55:53;38.00;;;22.90;;
17826;SDS011;9038;48.208;16.308;2023-02-03T01:57:58;36.47;;;22.47;;
17826;SDS011;9038;48.208;16.308;2023-02-03T02:00:05;35.87;;;22.33;;
17826;SDS011;9038;48.208;16.308;2023-02-03T02:02:08;36.63;;;22.50;;
17826;SDS011;9038;48.208;16.308;2023-02-03T02:04:12;35.73;;;22.20;;
17826;SDS011;9038;48.208;16.308;2023-02-03T02:06:15;36.33;;;22.43;;
17826;SDS011;9038;48.208;16.308;2023-02-03T02:08:17;34.40;;;22.00;;
17826;SDS011;9038;48.208;16.308;2023-02-03T02:10:21;33.30;;;21.60;;
17826;SDS011;9038;48.208;16.308;2023-02-03T02:12:24;29.10;;;20.27;;
17826;SDS011;9038;48.208;16.308;2023-02-03T02:14:26;29.40;;;20.30;;
17826;SDS011;9038;48.208;16.308;2023-02-03T02:16:32;29.10;;;20.13;;
17826;SDS011;9038;48.208;16.308;2023-02-03T02:18:47;29.63;;;20.40;;
17826;SDS011;9038;48.208;16.308;2023-02-03T02:23:50;29.17;;;20.20;;
17826;SDS011;9038;48.208;16.308;2023-02-03T02:26:18;29.03;;;20.13;;
17826;SDS011;9038;48.208;16.308;2023-02-03T02:28:47;27.30;;;19.50;;
17826;SDS011;9038;48.208;16.308;2023-02-03T02:31:05;26.37;;;19.20;;
17826;SDS011;9038;48.208;16.308;2023-02-03T02:33:33;26.17;;;19.07;;
17826;SDS011;9038;48.208;16.308;2023-02-03T02:35:46;26.30;;;19.30;;
17826;SDS011;9038;48.208;16.308;2023-02-03T02:37:58;23.80;;;18.60;;
17826;SDS011;9038;48.208;16.308;2023-02-03T02:40:07;23.47;;;18.40;;
17826;SDS011;9038;48.208;16.308;2023-02-03T02:42:17;26.93;;;19.43;;
17826;SDS011;9038;48.208;16.308;2023-02-03T02:44:28;26.73;;;19.30;;
17826;SDS011;9038;48.208;16.308;2023-02-03T02:46:37;25.20;;;18.83;;
17826;SDS011;9038;48.208;16.308;2023-02-03T02:48:45;21.67;;;18.03;;
17826;SDS011;9038;48.208;16.308;2023-02-03T02:50:53;23.00;;;18.30;;
17826;SDS011;9038;48.208;16.308;2023-02-03T02:52:57;20.70;;;17.97;;
17826;SDS011;9038;48.208;16.308;2023-02-03T02:55:01;19.70;;;17.80;;
17826;SDS011;9038;48.208;16.308;2023-02-03T02:57:06;18.97;;;17.20;;
17826;SDS011;9038;48.208;16.308;2023-02-03T02:59:11;18.47;;;16.77;;
17826;SDS011;9038;48.208;16.308;2023-02-03T03:01:15;17.63;;;16.13;;
17826;SDS011;9038;48.208;16.308;2023-02-03T03:03:18;15.97;;;14.67;;
17826;SDS011;9038;48.208;16.308;2023-02-03T03:05:23;16.57;;;15.20;;
17826;SDS011;9038;48.208;16.308;2023-02-03T03:07:26;16.80;;;15.40;;
17826;SDS011;9038;48.208;16.308;2023-02-03T03:09:29;16.20;;;14.90;;
17826;SDS011;9038;48.208;16.308;2023-02-03T03:11:36;16.27;;;14.97;;
17826;SDS011;9038;48.208;16.308;2023-02-03T03:13:43;14.97;;;13.83;;
17826;SDS011;9038;48.208;16.308;2023-02-03T03:15:48;13.73;;;12.67;;
17826;SDS011;9038;48.208;16.308;2023-02-03T03:17:55;14.97;;;13.77;;
17826;SDS011;9038;48.208;16.308;2023-02-03T03:20:01;17.87;;;16.33;;
17826;SDS011;9038;48.208;16.308;2023-02-03T03:22:10;17.37;;;15.87;;
17826;SDS011;9038;48.208;16.308;2023-02-03T03:24:17;16.97;;;15.57;;
17826;SDS011;9038;48.208;16.308;2023-02-03T03:26:24;15.73;;;14.47;;
17826;SDS011;9038;48.208;16.308;2023-02-03T03:28:29;14.47;;;13.37;;
17826;SDS011;9038;48.208;16.308;2023-02-03T03:30:37;8.00;;;7.40;;
17826;SDS011;9038;48.208;16.308;2023-02-03T03:32:40;20.80;;;17.87;;
17826;SDS011;9038;48.208;16.308;2023-02-03T03:34:42;20.23;;;17.80;;
17826;SDS011;9038;48.208;16.308;2023-02-03T03:36:45;21.03;;;18.03;;
17826;SDS011;9038;48.208;16.308;2023-02-03T03:38:54;21.17;;;17.97;;
17826;SDS011;9038;48.208;16.308;2023-02-03T03:41:01;19.57;;;17.57;;
17826;SDS011;9038;48.208;16.308;2023-02-03T03:43:06;20.40;;;17.90;;
17826;SDS011;9038;48.208;16.308;2023-02-03T03:45:14;19.73;;;17.73;;
17826;SDS011;9038;48.208;16.308;2023-02-03T03:47:20;17.90;;;16.40;;
17826;SDS011;9038;48.208;16.308;2023-02-03T03:49:27;17.67;;;16.17;;
17826;SDS011;9038;48.208;16.308;2023-02-03T03:51:32;15.37;;;14.17;;
17826;SDS011;9038;48.208;16.308;2023-02-03T03:53:37;14.30;;;13.20;;
17826;SDS011;9038;48.208;16.308;2023-02-03T03:55:45;17.80;;;16.30;;
17826;SDS011;9038;48.208;16.308;2023-02-03T03:57:53;16.57;;;15.23;;
17826;SDS011;9038;48.208;16.308;2023-02-03T03:59:58;16.70;;;15.30;;
17826;SDS011;9038;48.208;16.308;2023-02-03T04:02:02;18.30;;;16.63;;
17826;SDS011;9038;48.208;16.308;2023-02-03T04:04:06;18.73;;;17.03;;
17826;SDS011;9038;48.208;16.308;2023-02-03T04:06:11;17.70;;;16.20;;
17826;SDS011;9038;48.208;16.308;2023-02-03T04:08:13;14.40;;;13.30;;
17826;SDS011;9038;48.208;16.308;2023-02-03T04:10:19;16.83;;;15.43;;
17826;SDS011;9038;48.208;16.308;2023-02-03T04:12:27;16.23;;;14.93;;
17826;SDS011;9038;48.208;16.308;2023-02-03T04:14:29;17.27;;;15.83;;
17826;SDS011;9038;48.208;16.308;2023-02-03T04:16:32;15.10;;;13.93;;
17826;SDS011;9038;48.208;16.308;2023-02-03T04:18:34;11.53;;;10.67;;
17826;SDS011;9038;48.208;16.308;2023-02-03T04:20:36;0.83;;;0.80;;
17826;SDS011;9038;48.208;16.308;2023-02-03T04:22:38;1.40;;;1.33;;
17826;SDS011;9038;48.208;16.308;2023-02-03T04:24:40;10.93;;;10.13;;
17826;SDS011;9038;48.208;16.308;2023-02-03T04:26:42;15.83;;;14.60;;
17826;SDS011;9038;48.208;16.308;2023-02-03T04:28:45;15.30;;;14.10;;
17826;SDS011;9038;48.208;16.308;2023-02-03T04:30:47;8.47;;;7.83;;
17826;SDS011;9038;48.208;16.308;2023-02-03T04:32:49;5.50;;;5.13;;
17826;SDS011;9038;48.208;16.308;2023-02-03T04:34:51;8.93;;;8.27;;
17826;SDS011;9038;48.208;16.308;2023-02-03T04:36:53;12.67;;;11.70;;
17826;SDS011;9038;48.208;16.308;2023-02-03T04:38:55;3.80;;;3.57;;
17826;SDS011;9038;48.208;16.308;2023-02-03T04:40:57;0.07;;;0.07;;
17826;SDS011;9038;48.208;16.308;2023-02-03T04:43:04;0.00;;;0.00;;
17826;SDS011;9038;48.208;16.308;2023-02-03T04:45:09;0.00;;;0.00;;
17826;SDS011;9038;48.208;16.308;2023-02-03T04:47:12;0.03;;;0.03;;
17826;SDS011;9038;48.208;16.308;2023-02-03T04:49:15;0.00;;;0.00;;
17826;SDS011;9038;48.208;16.308;2023-02-03T04:51:17;0.10;;;0.10;;
17826;SDS011;9038;48.208;16.308;2023-02-03T04:53:19;0.00;;;0.00;;
17826;SDS011;9038;48.208;16.308;2023-02-03T04:55:21;0.00;;;0.00;;
17826;SDS011;9038;48.208;16.308;2023-02-03T04:57:23;0.00;;;0.00;;
17826;SDS011;9038;48.208;16.308;2023-02-03T04:59:25;0.00;;;0.00;;
17826;SDS011;9038;48.208;16.308;2023-02-03T05:01:28;0.00;;;0.00;;
17826;SDS011;9038;48.208;16.308;2023-02-03T05:03:30;0.00;;;0.00;;
17826;SDS011;9038;48.208;16.308;2023-02-03T05:05:32;0.00;;;0.00;;
17826;SDS011;9038;48.208;16.308;2023-02-03T05:07:34;0.00;;;0.00;;
17826;SDS011;9038;48.208;16.308;2023-02-03T05:09:36;0.00;;;0.00;;
17826;SDS011;9038;48.208;16.308;2023-02-03T05:11:38;0.00;;;0.00;;
17826;SDS011;9038;48.208;16.308;2023-02-03T05:13:40;0.00;;;0.00;;
17826;SDS011;9038;48.208;16.308;2023-02-03T05:15:42;0.00;;;0.00;;
17826;SDS011;9038;48.208;16.308;2023-02-03T05:17:45;0.00;;;0.00;;
17826;SDS011;9038;48.208;16.308;2023-02-03T05:19:47;0.00;;;0.00;;
17826;SDS011;9038;48.208;16.308;2023-02-03T05:21:49;0.00;;;0.00;;
17826;SDS011;9038;48.208;16.308;2023-02-03T05:23:51;0.00;;;0.00;;
17826;SDS011;9038;48.208;16.308;2023-02-03T05:25:53;0.00;;;0.00;;
17826;SDS011;9038;48.208;16.308;2023-02-03T05:27:55;0.00;;;0.00;;
17826;SDS011;9038;48.208;16.308;2023-02-03T05:29:57;0.33;;;0.33;;
17826;SDS011;9038;48.208;16.308;2023-02-03T05:31:59;0.07;;;0.07;;
17826;SDS011;9038;48.208;16.308;2023-02-03T05:34:02;0.13;;;0.13;;
17826;SDS011;9038;48.208;16.308;2023-02-03T05:36:04;0.00;;;0.00;;
17826;SDS011;9038;48.208;16.308;2023-02-03T05:38:07;0.53;;;0.50;;
17826;SDS011;9038;48.208;16.308;2023-02-03T05:40:09;0.00;;;0.00;;
17826;SDS011;9038;48.208;16.308;2023-02-03T05:42:29;0.00;;;0.00;;
17826;SDS011;9038;48.208;16.308;2023-02-03T05:44:31;0.00;;;0.00;;
17826;SDS011;9038;48.208;16.308;2023-02-03T05:46:33;0.00;;;0.00;;
17826;SDS011;9038;48.208;16.308;2023-02-03T05:48:35;43.80;;;22.10;;
17826;SDS011;9038;48.208;16.308;2023-02-03T05:50:38;65.87;;;29.50;;
17826;SDS011;9038;48.208;16.308;2023-02-03T05:52:40;53.77;;;27.30;;
17826;SDS011;9038;48.208;16.308;2023-02-03T05:54:42;52.47;;;26.83;;
17826;SDS011;9038;48.208;16.308;2023-02-03T05:56:44;47.20;;;25.93;;
17826;SDS011;9038;48.208;16.308;2023-02-03T05:58:46;47.50;;;25.80;;
17826;SDS011;9038;48.208;16.308;2023-02-03T06:00:50;46.97;;;25.57;;
17826;SDS011;9038;48.208;16.308;2023-02-03T06:02:53;42.67;;;24.60;;
17826;SDS011;9038;48.208;16.308;2023-02-03T06:04:56;41.03;;;23.90;;
17826;SDS011;9038;48.208;16.308;2023-02-03T06:06:59;37.20;;;23.00;;
17826;SDS011;9038;48.208;16.308;2023-02-03T06:09:02;34.57;;;22.30;;
17826;SDS011;9038;48.208;16.308;2023-02-03T06:11:06;33.60;;;22.13;;
17826;SDS011;9038;48.208;16.308;2023-02-03T06:13:08;31.90;;;21.57;;
17826;SDS011;9038;48.208;16.308;2023-02-03T06:15:11;31.73;;;21.53;;
17826;SDS011;9038;48.208;16.308;2023-02-03T06:17:14;32.57;;;21.70;;
17826;SDS011;9038;48.208;16.308;2023-02-03T06:19:15;31.60;;;21.50;;
17826;SDS011;9038;48.208;16.308;2023-02-03T06:21:18;31.87;;;21.57;;
17826;SDS011;9038;48.208;16.308;2023-02-03T06:23:22;29.50;;;20.67;;
17826;SDS011;9038;48.208;16.308;2023-02-03T06:25:24;27.53;;;19.83;;
17826;SDS011;9038;48.208;16.308;2023-02-03T06:27:26;27.40;;;19.83;;
17826;SDS011;9038;48.208;16.308;2023-02-03T06:29:28;26.47;;;19.53;;
17826;SDS011;9038;48.208;16.308;2023-02-03T06:31:30;25.43;;;19.20;;
17826;SDS011;9038;48.208;16.308;2023-02-03T06:33:32;24.10;;;18.77;;
17826;SDS011;9038;48.208;16.308;2023-02-03T06:35:34;21.87;;;18.13;;
17826;SDS011;9038;48.208;16.308;2023-02-03T06:37:37;21.00;;;17.93;;
17826;SDS011;9038;48.208;16.308;2023-02-03T06:39:40;21.67;;;18.10;;
17826;SDS011;9038;48.208;16.308;2023-02-03T06:41:42;21.00;;;17.93;;
17826;SDS011;9038;48.208;16.308;2023-02-03T06:43:44;20.00;;;17.73;;
17826;SDS011;9038;48.208;16.308;2023-02-03T06:45:46;19.73;;;17.63;;
17826;SDS011;9038;48.208;16.308;2023-02-03T06:47:49;19.30;;;17.30;;
17826;SDS011;9038;48.208;16.308;2023-02-03T06:49:51;19.70;;;17.77;;
17826;SDS011;9038;48.208;16.308;2023-02-03T06:51:52;18.97;;;17.17;;
17826;SDS011;9038;48.208;16.308;2023-02-03T06:53:55;19.43;;;17.53;;
17826;SDS011;9038;48.208;16.308;2023-02-03T06:55:59;18.90;;;17.13;;
17826;SDS011;9038;48.208;16.308;2023-02-03T06:58:01;18.77;;;17.07;;
17826;SDS011;9038;48.208;16.308;2023-02-03T07:00:03;18.47;;;16.80;;
17826;SDS011;9038;48.208;16.308;2023-02-03T07:02:05;18.23;;;16.63;;
17826;SDS011;9038;48.208;16.308;2023-02-03T07:04:08;18.17;;;16.60;;
17826;SDS011;9038;48.208;16.308;2023-02-03T07:06:09;17.80;;;16.30;;
17826;SDS011;9038;48.208;16.308;2023-02-03T07:08:11;17.93;;;16.43;;
17826;SDS011;9038;48.208;16.308;2023-02-03T07:10:13;17.97;;;16.43;;
17826;SDS011;9038;48.208;16.308;2023-02-03T07:12:17;17.83;;;16.33;;
17826;SDS011;9038;48.208;16.308;2023-02-03T07:14:19;17.47;;;16.03;;
17826;SDS011;9038;48.208;16.308;2023-02-03T07:16:21;17.67;;;16.17;;
17826;SDS011;9038;48.208;16.308;2023-02-03T07:18:23;17.90;;;16.40;;
17826;SDS011;9038;48.208;16.308;2023-02-03T07:20:25;17.63;;;16.20;;
17826;SDS011;9038;48.208;16.308;2023-02-03T07:22:28;17.63;;;16.13;;
17826;SDS011;9038;48.208;16.308;2023-02-03T07:24:30;18.13;;;16.53;;
17826;SDS011;9038;48.208;16.308;2023-02-03T07:26:32;18.00;;;16.47;;
17826;SDS011;9038;48.208;16.308;2023-02-03T07:28:35;17.90;;;16.40;;
17826;SDS011;9038;48.208;16.308;2023-02-03T07:30:37;17.93;;;16.43;;
17826;SDS011;9038;48.208;16.308;2023-02-03T07:32:39;18.63;;;16.90;;
17826;SDS011;9038;48.208;16.308;2023-02-03T07:34:41;18.30;;;16.70;;
17826;SDS011;9038;48.208;16.308;2023-02-03T07:36:43;17.77;;;16.27;;
17826;SDS011;9038;48.208;16.308;2023-02-03T07:38:45;17.40;;;16.00;;
17826;SDS011;9038;48.208;16.308;2023-02-03T07:40:47;17.37;;;15.97;;
17826;SDS011;9038;48.208;16.308;2023-02-03T07:42:49;17.13;;;15.77;;
17826;SDS011;9038;48.208;16.308;2023-02-03T07:44:53;17.07;;;15.73;;
17826;SDS011;9038;48.208;16.308;2023-02-03T07:46:55;16.23;;;15.03;;
17826;SDS011;9038;48.208;16.308;2023-02-03T07:48:57;15.57;;;14.47;;
17826;SDS011;9038;48.208;16.308;2023-02-03T07:50:59;14.60;;;13.60;;
17826;SDS011;9038;48.208;16.308;2023-02-03T07:53:01;14.33;;;13.37;;
17826;SDS011;9038;48.208;16.308;2023-02-03T07:55:03;13.67;;;12.77;;
17826;SDS011;9038;48.208;16.308;2023-02-03T07:57:07;13.87;;;12.97;;
17826;SDS011;9038;48.208;16.308;2023-02-03T07:59:09;12.90;;;12.07;;
17826;SDS011;9038;48.208;16.308;2023-02-03T08:01:13;12.17;;;11.40;;
17826;SDS011;9038;48.208;16.308;2023-02-03T08:03:16;11.60;;;10.90;;
17826;SDS011;9038;48.208;16.308;2023-02-03T08:05:19;9.50;;;8.93;;
17826;SDS011;9038;48.208;16.308;2023-02-03T08:07:21;10.40;;;9.77;;
17826;SDS011;9038;48.208;16.308;2023-02-03T08:09:23;14.23;;;13.33;;
17826;SDS011;9038;48.208;16.308;2023-02-03T08:11:25;8.03;;;7.57;;
17826;SDS011;9038;48.208;16.308;2023-02-03T08:13:27;3.33;;;3.17;;
17826;SDS011;9038;48.208;16.308;2023-02-03T08:15:29;3.77;;;3.57;;
17826;SDS011;9038;48.208;16.308;2023-02-03T08:17:33;1.60;;;1.53;;
17826;SDS011;9038;48.208;16.308;2023-02-03T08:19:35;1.90;;;1.83;;
17826;SDS011;9038;48.208;16.308;2023-02-03T08:21:37;3.90;;;3.70;;
17826;SDS011;9038;48.208;16.308;2023-02-03T08:23:39;5.07;;;4.80;;
17826;SDS011;9038;48.208;16.308;2023-02-03T08:25:41;4.47;;;4.23;;
17826;SDS011;9038;48.208;16.308;2023-02-03T08:27:42;4.70;;;4.43;;
17826;SDS011;9038;48.208;16.308;2023-02-03T08:29:45;3.77;;;3.60;;
17826;SDS011;9038;48.208;16.308;2023-02-03T08:31:47;4.40;;;4.17;;
17826;SDS011;9038;48.208;16.308;2023-02-03T08:33:50;2.90;;;2.77;;
17826;SDS011;9038;48.208;16.308;2023-02-03T08:35:52;3.90;;;3.70;;
17826;SDS011;9038;48.208;16.308;2023-02-03T08:37:55;5.50;;;5.20;;
17826;SDS011;9038;48.208;16.308;2023-02-03T08:39:57;4.57;;;4.33;;
17826;SDS011;9038;48.208;16.308;2023-02-03T08:42:00;6.00;;;5.67;;
17826;SDS011;9038;48.208;16.308;2023-02-03T08:44:03;4.67;;;4.43;;
17826;SDS011;9038;48.208;16.308;2023-02-03T08:46:05;4.53;;;4.30;;
17826;SDS011;9038;48.208;16.308;2023-02-03T08:48:08;5.70;;;5.40;;
17826;SDS011;9038;48.208;16.308;2023-02-03T08:50:12;6.73;;;6.37;;
17826;SDS011;9038;48.208;16.308;2023-02-03T08:52:14;6.77;;;6.40;;
17826;SDS011;9038;48.208;16.308;2023-02-03T08:54:16;5.13;;;4.87;;
17826;SDS011;9038;48.208;16.308;2023-02-03T08:56:19;5.13;;;4.87;;
17826;SDS011;9038;48.208;16.308;2023-02-03T08:58:21;5.73;;;5.40;;
17826;SDS011;9038;48.208;16.308;2023-02-03T09:00:23;4.43;;;4.20;;
17826;SDS011;9038;48.208;16.308;2023-02-03T09:02:26;3.43;;;3.27;;
17826;SDS011;9038;48.208;16.308;2023-02-03T09:04:28;3.00;;;2.87;;
17826;SDS011;9038;48.208;16.308;2023-02-03T09:06:32;2.47;;;2.37;;
17826;SDS011;9038;48.208;16.308;2023-02-03T09:08:35;2.37;;;2.27;;
17826;SDS011;9038;48.208;16.308;2023-02-03T09:10:37;1.93;;;1.87;;
17826;SDS011;9038;48.208;16.308;2023-02-03T09:12:39;1.43;;;1.40;;
17826;SDS011;9038;48.208;16.308;2023-02-03T09:14:41;1.83;;;1.77;;
17826;SDS011;9038;48.208;16.308;2023-02-03T09:16:43;1.43;;;1.40;;
17826;SDS011;9038;48.208;16.308;2023-02-03T09:18:45;2.33;;;2.27;;
17826;SDS011;9038;48.208;16.308;2023-02-03T09:20:47;1.77;;;1.70;;
17826;SDS011;9038;48.208;16.308;2023-02-03T09:22:51;1.53;;;1.50;;
17826;SDS011;9038;48.208;16.308;2023-02-03T09:24:54;1.53;;;1.50;;
17826;SDS011;9038;48.208;16.308;2023-02-03T09:26:55;0.63;;;0.63;;
17826;SDS011;9038;48.208;16.308;2023-02-03T09:29:00;2.47;;;2.37;;
17826;SDS011;9038;48.208;16.308;2023-02-03T09:31:02;2.47;;;2.37;;
17826;SDS011;9038;48.208;16.308;2023-02-03T09:33:05;3.10;;;2.97;;
17826;SDS011;9038;48.208;16.308;2023-02-03T09:35:07;5.70;;;5.37;;
17826;SDS011;9038;48.208;16.308;2023-02-03T09:37:09;10.23;;;9.63;;
17826;SDS011;9038;48.208;16.308;2023-02-03T09:39:13;10.40;;;9.80;;
17826;SDS011;9038;48.208;16.308;2023-02-03T09:41:19;11.63;;;10.97;;
17826;SDS011;9038;48.208;16.308;2023-02-03T09:43:31;11.37;;;10.70;;
17826;SDS011;9038;48.208;16.308;2023-02-03T09:45:38;11.83;;;11.10;;
17826;SDS011;9038;48.208;16.308;2023-02-03T09:47:41;11.63;;;10.90;;
17826;SDS011;9038;48.208;16.308;2023-02-03T09:49:44;12.40;;;11.60;;
17826;SDS011;9038;48.208;16.308;2023-02-03T09:51:50;12.43;;;11.67;;
17826;SDS011;9038;48.208;16.308;2023-02-03T09:53:56;11.03;;;10.37;;
17826;SDS011;9038;48.208;16.308;2023-02-03T09:56:02;12.83;;;12.00;;
17826;SDS011;9038;48.208;16.308;2023-02-03T09:58:07;12.40;;;11.63;;
17826;SDS011;9038;48.208;16.308;2023-02-03T10:00:15;13.33;;;12.47;;
17826;SDS011;9038;48.208;16.308;2023-02-03T10:02:32;13.60;;;12.63;;
17826;SDS011;9038;48.208;16.308;2023-02-03T10:04:47;14.53;;;13.53;;
17826;SDS011;9038;48.208;16.308;2023-02-03T10:06:57;14.83;;;13.80;;
17826;SDS011;9038;48.208;16.308;2023-02-03T10:09:11;14.63;;;13.60;;
17826;SDS011;9038;48.208;16.308;2023-02-03T10:11:27;14.33;;;13.33;;
17826;SDS011;9038;48.208;16.308;2023-02-03T10:13:52;14.17;;;13.20;;
17826;SDS011;9038;48.208;16.308;2023-02-03T10:16:07;13.50;;;12.57;;
17826;SDS011;9038;48.208;16.308;2023-02-03T10:18:22;14.43;;;13.43;;
17826;SDS011;9038;48.208;16.308;2023-02-03T10:20:29;13.97;;;13.00;;
17826;SDS011;9038;48.208;16.308;2023-02-03T10:22:37;13.67;;;12.73;;
17826;SDS011;9038;48.208;16.308;2023-02-03T10:24:45;12.80;;;11.93;;
17826;SDS011;9038;48.208;16.308;2023-02-03T10:26:52;12.50;;;11.70;;
17826;SDS011;9038;48.208;16.308;2023-02-03T10:28:55;13.67;;;12.70;;
17826;SDS011;9038;48.208;16.308;2023-02-03T10:30:58;13.97;;;13.03;;
17826;SDS011;9038;48.208;16.308;2023-02-03T10:33:08;14.97;;;13.90;;
17826;SDS011;9038;48.208;16.308;2023-02-03T10:35:11;16.30;;;15.00;;
17826;SDS011;9038;48.208;16.308;2023-02-03T10:37:17;18.43;;;16.63;;
17826;SDS011;9038;48.208;16.308;2023-02-03T10:39:29;18.37;;;16.60;;
17826;SDS011;9038;48.208;16.308;2023-02-03T10:41:33;18.43;;;16.63;;
17826;SDS011;9038;48.208;16.308;2023-02-03T10:43:36;15.00;;;13.97;;
17826;SDS011;9038;48.208;16.308;2023-02-03T10:45:50;14.67;;;13.70;;
17826;SDS011;9038;48.208;16.308;2023-02-03T10:47:52;13.83;;;12.93;;
17826;SDS011;9038;48.208;16.308;2023-02-03T10:49:56;13.70;;;12.80;;
17826;SDS011;9038;48.208;16.308;2023-02-03T10:51:59;13.40;;;12.57;;
17826;SDS011;9038;48.208;16.308;2023-02-03T10:54:03;12.47;;;11.70;;
17826;SDS011;9038;48.208;16.308;2023-02-03T10:56:08;11.80;;;11.10;;
17826;SDS011;9038;48.208;16.308;2023-02-03T10:58:13;11.87;;;11.17;;
17826;SDS011;9038;48.208;16.308;2023-02-03T11:00:22;12.23;;;11.50;;
17826;SDS011;9038;48.208;16.308;2023-02-03T11:02:29;12.73;;;11.97;;
17826;SDS011;9038;48.208;16.308;2023-02-03T11:04:32;10.77;;;10.17;;
17826;SDS011;9038;48.208;16.308;2023-02-03T11:06:34;11.37;;;10.73;;
17826;SDS011;9038;48.208;16.308;2023-02-03T11:08:37;11.43;;;10.80;;
17826;SDS011;9038;48.208;16.308;2023-02-03T11:10:41;10.17;;;9.60;;
17826;SDS011;9038;48.208;16.308;2023-02-03T11:12:43;11.03;;;10.43;;
17826;SDS011;9038;48.208;16.308;2023-02-03T11:14:45;9.20;;;8.70;;
17826;SDS011;9038;48.208;16.308;2023-02-03T11:16:50;4.80;;;4.57;;
17826;SDS011;9038;48.208;16.308;2023-02-03T11:18:53;5.37;;;5.10;;
17826;SDS011;9038;48.208;16.308;2023-02-03T11:20:56;3.77;;;3.60;;
17826;SDS011;9038;48.208;16.308;2023-02-03T11:22:58;4.20;;;4.00;;
17826;SDS011;9038;48.208;16.308;2023-02-03T11:25:01;3.67;;;3.50;;
17826;SDS011;9038;48.208;16.308;2023-02-03T11:27:05;4.47;;;4.27;;
17826;SDS011;9038;48.208;16.308;2023-02-03T11:29:14;8.47;;;8.03;;
17826;SDS011;9038;48.208;16.308;2023-02-03T11:31:20;4.50;;;4.30;;
17826;SDS011;9038;48.208;16.308;2023-02-03T11:33:26;2.77;;;2.67;;
17826;SDS011;9038;48.208;16.308;2023-02-03T11:35:29;3.80;;;3.63;;
17826;SDS011;9038;48.208;16.308;2023-02-03T11:37:34;2.77;;;2.67;;
17826;SDS011;9038;48.208;16.308;2023-02-03T11:39:38;2.50;;;2.40;;
17826;SDS011;9038;48.208;16.308;2023-02-03T11:41:40;0.70;;;0.70;;
17826;SDS011;9038;48.208;16.308;2023-02-03T11:43:42;0.67;;;0.67;;
17826;SDS011;9038;48.208;16.308;2023-02-03T11:45:45;1.70;;;1.67;;
17826;SDS011;9038;48.208;16.308;2023-02-03T11:47:51;1.70;;;1.67;;
17826;SDS011;9038;48.208;16.308;2023-02-03T11:50:06;1.17;;;1.13;;
17826;SDS011;9038;48.208;16.308;2023-02-03T11:52:29;1.43;;;1.40;;
17826;SDS011;9038;48.208;16.308;2023-02-03T11:54:52;1.63;;;1.60;;
17826;SDS011;9038;48.208;16.308;2023-02-03T11:57:04;1.40;;;1.37;;
17826;SDS011;9038;48.208;16.308;2023-02-03T11:59:22;0.80;;;0.80;;
17826;SDS011;9038;48.208;16.308;2023-02-03T12:01:42;0.10;;;0.10;;
17826;SDS011;9038;48.208;16.308;2023-02-03T12:04:12;0.07;;;0.07;;
17826;SDS011;9038;48.208;16.308;2023-02-03T12:06:32;0.00;;;0.00;;
17826;SDS011;9038;48.208;16.308;2023-02-03T12:08:58;0.00;;;0.00;;
17826;SDS011;9038;48.208;16.308;2023-02-03T12:11:15;0.00;;;0.00;;
17826;SDS011;9038;48.208;16.308;2023-02-03T12:13:30;0.00;;;0.00;;
17826;SDS011;9038;48.208;16.308;2023-02-03T12:15:45;0.00;;;0.00;;
17826;SDS011;9038;48.208;16.308;2023-02-03T12:18:07;0.00;;;0.00;;
17826;SDS011;9038;48.208;16.308;2023-02-03T12:20:22;0.00;;;0.00;;